Allendale, Illinois
Current Conditions -  °F | °C
As of 10:35 AM on Friday 31 Oct 2014 (Local Time) from KAJG Reporting Station
Overcast Overcast  
Wind Chill: 34°   Ceiling: 2500
Heat Index: 43°   Visibility: 10mi
Dew Point: 36°   Wind: 23mph
Humidity: 76%   Direction: 330°NNW
Pressure: 30.11"   Gusts: 36mph
Location:  38.53°N, 87.71°W
Report Text: KAJG 311535Z AUTO 33020G31KT 10SM OVC025 06/02 A3011 RMK AO2
Loading
Personal Weather Stations






























Interactive Weather Map
Tropical Storm Tracking
New forecast layout! Learn more

10-Day Weather Forecast

Advertisements
Track Severe Weather on mobile